Time;durP1;ratioP1;P1;durP2;ratioP2;P2;SDS_P1;SDS_P2;PMS_P1;PMS_P2;Temp;Humidity;BMP_temperature;BMP_pressure;BME280_temperature;BME280_humidity;BME280_pressure;Samples;Min_cycle;Max_cycle;Signal;HPM_P1;HPM_P2
2022/09/07 04:12:25;;;;;;;2.47;2.27;;;;;;;9.35;100.00;101348.91;4952847;28;20671;-72
2022/09/07 04:14:54;;;;;;;;;;;;;;;9.42;100.00;101352.66;4955579;29;20501;-76
2022/09/07 04:17:20;;;;;;;3.60;2.63;;;;;;;9.42;100.00;101358.00;4955389;29;19925;-74
2022/09/07 04:19:45;;;;;;;4.47;3.27;;;;;;;9.37;100.00;101338.97;4955580;29;20047;-74
2022/09/07 04:22:11;;;;;;;3.17;2.37;;;;;;;9.46;100.00;101359.38;4956371;29;20047;-76
2022/09/07 04:24:36;;;;;;;2.50;2.30;;;;;;;9.51;100.00;101361.63;4960216;29;20031;-73
2022/09/07 04:27:02;;;;;;;2.90;2.17;;;;;;;9.56;100.00;101362.91;4953668;29;20119;-74
2022/09/07 04:29:27;;;;;;;3.00;2.63;;;;;;;9.53;100.00;101352.50;4971246;29;20043;-72
2022/09/07 04:31:53;;;;;;;2.03;1.70;;;;;;;9.65;98.91;101368.34;4954572;29;20046;-73
2022/09/07 04:34:19;;;;;;;2.00;1.90;;;;;;;9.60;98.65;101350.16;4954787;29;20035;-75
2022/09/07 04:36:44;;;;;;;2.70;2.03;;;;;;;9.78;98.01;101368.88;4954424;29;20122;-73
2022/09/07 04:39:10;;;;;;;2.10;1.90;;;;;;;9.83;97.53;101378.13;4953882;29;20098;-73
2022/09/07 04:41:35;;;;;;;2.50;2.30;;;;;;;9.96;96.61;101393.78;4938627;29;20046;-76
2022/09/07 04:44:03;;;;;;;2.10;1.77;;;;;;;9.94;95.60;101379.78;4956317;29;20035;-77
2022/09/07 04:46:32;;;;;;;2.37;2.17;;;;;;;9.80;96.10;101361.56;4944348;29;20035;-76
2022/09/07 04:49:00;;;;;;;2.37;1.80;;;;;;;9.75;96.56;101366.50;4963617;29;20082;-75
2022/09/07 04:51:29;;;;;;;2.57;1.80;;;;;;;9.77;96.55;101372.50;4963663;29;20031;-76
2022/09/07 04:53:56;;;;;;;1.90;1.70;;;;;;;9.51;96.36;101348.31;4959334;29;20138;-76
2022/09/07 04:56:22;;;;;;;2.17;2.07;;;;;;;9.85;96.16;101381.47;4959995;29;20101;-77
2022/09/07 04:58:48;;;;;;;1.70;1.60;;;;;;;9.51;95.01;101341.19;4959763;29;20326;-75
2022/09/07 05:01:17;;;;;;;1.97;1.83;;;;;;;9.79;94.53;101375.84;4958608;29;20062;-74
2022/09/07 05:03:43;;;;;;;2.30;1.40;;;;;;;9.71;93.90;101362.44;4965970;29;20039;-75
2022/09/07 05:06:09;;;;;;;1.90;1.80;;;;;;;9.89;94.20;101385.53;4965478;29;20054;-76
2022/09/07 05:08:40;;;;;;;3.53;2.10;;;;;;;9.91;92.80;101388.03;4961927;29;20043;-76
2022/09/07 05:11:10;;;;;;;1.97;1.73;;;;;;;9.70;92.91;101350.97;4960900;29;20051;-77
2022/09/07 05:13:36;;;;;;;1.80;1.70;;;;;;;9.89;93.21;101384.69;4961093;28;20555;-74
2022/09/07 05:16:27;;;;;;;2.10;1.90;;;;;;;9.92;92.56;101384.41;4950483;29;20058;-75
2022/09/07 05:18:55;;;;;;;1.93;1.80;;;;;;;10.12;92.06;101383.38;4964274;29;20061;-75
2022/09/07 05:21:26;;;;;;;2.78;2.05;;;;;;;10.40;92.25;101408.22;4962038;29;20043;-77
2022/09/07 05:23:54;;;;;;;3.77;2.27;;;;;;;10.41;92.09;101388.63;4961681;29;20046;-79
2022/09/07 05:26:22;;;;;;;2.40;1.50;;;;;;;10.35;89.09;101393.69;4960793;29;20047;-77
2022/09/07 05:28:48;;;;;;;2.17;2.07;;;;;;;10.34;89.94;101397.34;4958343;29;20066;-74
2022/09/07 05:31:18;;;;;;;2.30;1.80;;;;;;;10.45;89.69;101405.16;4959089;29;20118;-75
2022/09/07 05:33:47;;;;;;;2.70;1.70;;;;;;;10.62;88.36;101414.19;4924882;29;20158;-76
2022/09/07 05:36:13;;;;;;;1.70;1.60;;;;;;;10.49;86.61;101403.88;4957854;29;20126;-74
2022/09/07 05:38:39;;;;;;;5.47;1.70;;;;;;;10.44;85.21;101395.50;4957870;29;20125;-72
2022/09/07 05:41:21;;;;;;;2.37;1.53;;;;;;;10.41;87.83;101391.31;4957556;29;20086;-75
2022/09/07 05:43:48;;;;;;;1.53;1.43;;;;;;;10.56;85.81;101404.97;4958213;29;20122;-76
2022/09/07 05:46:14;;;;;;;2.13;1.93;;;;;;;10.52;86.15;101403.59;4958112;29;20655;-74
2022/09/07 05:48:40;;;;;;;2.50;1.60;;;;;;;10.61;85.70;101415.16;4958107;29;20134;-74
2022/09/07 05:51:06;;;;;;;1.47;1.37;;;;;;;10.51;86.32;101410.72;4957961;29;20039;-72
2022/09/07 05:53:36;;;;;;;3.60;1.50;;;;;;;10.16;85.09;101390.09;4957621;29;20050;-77
2022/09/07 05:56:04;;;;;;;2.80;1.20;;;;;;;10.15;87.02;101419.50;4958217;29;20046;-75
2022/09/07 05:58:31;;;;;;;1.60;1.50;;;;;;;10.04;87.80;101409.00;4940965;29;20043;-74
2022/09/07 06:01:01;;;;;;;1.67;1.57;;;;;;;9.83;88.38;101414.50;4940629;29;20032;-75
2022/09/07 06:03:27;;;;;;;2.17;1.47;;;;;;;9.79;90.78;101429.91;4957839;29;20051;-77
2022/09/07 06:06:00;;;;;;;1.60;1.50;;;;;;;9.60;92.61;101409.50;4957234;29;20066;-75
2022/09/07 06:08:26;;;;;;;1.23;1.13;;;;;;;9.65;93.62;101437.47;4940907;29;20039;-74
2022/09/07 06:10:54;;;;;;;2.20;1.30;;;;;;;9.46;94.99;101431.16;4958754;29;20062;-72
2022/09/07 06:13:21;;;;;;;1.63;1.50;;;;;;;9.23;94.66;101419.09;4957998;29;20073;-75
2022/09/07 06:15:46;;;;;;;1.50;1.40;;;;;;;9.30;95.83;101429.06;4957570;29;20050;-72
2022/09/07 06:18:12;;;;;;;1.73;1.30;;;;;;;9.28;95.71;101430.19;4957405;29;20126;-74
2022/09/07 06:20:37;;;;;;;1.90;1.60;;;;;;;9.30;95.13;101430.88;4957616;29;20039;-75
2022/09/07 06:23:03;;;;;;;2.90;1.20;;;;;;;9.55;94.08;101430.34;4957032;29;20042;-74
2022/09/07 06:25:28;;;;;;;2.30;1.37;;;;;;;9.30;93.05;101380.38;4956683;28;20032;-74
2022/09/07 06:27:54;;;;;;;1.50;1.37;;;;;;;9.77;92.38;101436.34;4940502;29;20035;-74
2022/09/07 06:30:20;;;;;;;1.63;1.50;;;;;;;9.98;89.97;101417.56;4958173;29;20043;-75
2022/09/07 06:32:46;;;;;;;2.50;1.70;;;;;;;10.21;90.83;101438.44;4963347;29;20418;-72
2022/09/07 06:35:12;;;;;;;2.03;1.50;;;;;;;10.19;88.97;101426.22;4960972;29;20054;-74
2022/09/07 06:37:38;;;;;;;1.40;1.30;;;;;;;10.16;88.77;101439.81;4956975;29;20050;-74
2022/09/07 06:40:04;;;;;;;1.60;1.50;;;;;;;10.08;89.41;101443.19;4957277;29;20035;-75
2022/09/07 06:42:29;;;;;;;2.43;1.40;;;;;;;9.98;89.66;101450.34;4969128;29;20128;-71
2022/09/07 06:44:55;;;;;;;3.20;1.80;;;;;;;9.89;90.59;101461.84;4946301;29;20063;-74
2022/09/07 06:47:20;;;;;;;2.07;1.57;;;;;;;9.48;91.45;101426.53;4957328;29;20513;-74
2022/09/07 06:49:46;;;;;;;1.97;1.60;;;;;;;9.49;91.65;101446.84;4939313;29;20509;-77
2022/09/07 06:52:11;;;;;;;1.70;1.60;;;;;;;9.50;92.29;101464.47;4956351;29;20487;-72
2022/09/07 06:54:38;;;;;;;1.53;1.43;;;;;;;9.26;90.65;101430.31;4956338;29;20126;-75
2022/09/07 06:57:07;;;;;;;2.07;1.40;;;;;;;9.46;90.46;101460.41;4956079;28;20118;-76
2022/09/07 06:59:33;;;;;;;2.03;1.50;;;;;;;9.53;90.83;101466.84;4957584;29;20050;-78
2022/09/07 07:01:59;;;;;;;1.93;1.40;;;;;;;9.65;90.14;101474.72;4956368;29;20050;-71
2022/09/07 07:04:24;;;;;;;2.40;1.60;;;;;;;9.79;90.29;101487.59;4956589;29;20130;-76
2022/09/07 07:06:50;;;;;;;3.40;1.80;;;;;;;9.88;90.05;101492.09;4956560;29;20150;-74
2022/09/07 07:09:15;;;;;;;1.53;1.43;;;;;;;9.90;88.80;101490.13;4956271;29;20062;-72
2022/09/07 07:11:42;;;;;;;2.07;1.37;;;;;;;9.87;89.07;101479.78;4939563;29;20086;-75
2022/09/07 07:14:13;;;;;;;2.53;1.93;;;;;;;10.15;88.18;101502.88;4940385;29;20462;-76
2022/09/07 07:16:38;;;;;;;2.00;1.60;;;;;;;10.20;87.51;101497.97;4957090;29;20073;-75
2022/09/07 07:19:04;;;;;;;1.80;1.40;;;;;;;10.16;87.80;101491.22;4956896;29;20494;-78
2022/09/07 07:21:29;;;;;;;8.17;1.67;;;;;;;10.30;87.68;101499.78;4956888;29;20043;-73
2022/09/07 07:23:55;;;;;;;1.50;1.40;;;;;;;10.15;87.43;101494.88;4955722;29;20127;-72
2022/09/07 07:26:25;;;;;;;1.77;1.47;;;;;;;10.17;86.15;101505.38;4956410;29;20074;-75
2022/09/07 07:28:53;;;;;;;1.73;1.40;;;;;;;10.28;85.98;101499.91;4955995;29;20051;-73
2022/09/07 07:31:21;;;;;;;1.40;1.30;;;;;;;10.57;84.70;101499.84;4956690;29;20430;-73
2022/09/07 07:33:47;;;;;;;2.38;1.70;;;;;;;10.65;83.22;101507.97;4956026;29;20082;-75
2022/09/07 07:36:24;;;;;;;2.60;1.60;;;;;;;10.70;84.14;101516.38;4955792;28;20043;-74
2022/09/07 07:38:52;;;;;;;2.57;1.40;;;;;;;10.41;86.58;101520.94;4955155;29;20039;-72
2022/09/07 07:41:21;;;;;;;4.57;1.35;;;;;;;9.99;89.25;101515.03;4956134;29;20070;-75
2022/09/07 07:43:51;;;;;;;1.35;1.20;;;;;;;9.70;91.52;101489.28;4955651;29;20054;-73
2022/09/07 07:46:16;;;;;;;2.60;1.67;;;;;;;9.76;92.12;101519.78;4956177;29;20073;-74
2022/09/07 07:48:46;;;;;;;2.60;2.10;;;;;;;9.49;93.23;101488.53;4955383;29;20063;-76
2022/09/07 07:51:11;;;;;;;2.13;1.83;;;;;;;9.70;93.37;101549.59;4955213;29;20039;-75
2022/09/07 07:53:38;;;;;;;3.23;2.30;;;;;;;9.58;93.57;101533.78;4955148;29;20042;-74
2022/09/07 07:56:05;;;;;;;3.67;1.83;;;;;;;9.57;93.75;101537.41;4954890;29;20074;-74
2022/09/07 07:58:33;;;;;;;3.30;1.80;;;;;;;9.55;93.56;101542.03;4953950;29;20035;-74
2022/09/07 08:01:11;;;;;;;2.17;1.80;;;;;;;9.24;93.21;101497.88;4954518;29;20075;-75
2022/09/07 08:03:38;;;;;;;2.55;1.65;;;;;;;9.51;91.11;101547.75;4955045;29;20274;-77
2022/09/07 08:06:10;;;;;;;1.63;1.53;;;;;;;9.58;90.92;101544.41;4956659;29;20134;-74
2022/09/07 08:08:36;;;;;;;3.37;1.83;;;;;;;9.71;90.64;101548.63;4955355;29;20094;-75
2022/09/07 08:11:07;;;;;;;2.20;1.60;;;;;;;9.89;90.30;101553.16;4955024;29;20065;-76
2022/09/07 08:13:39;;;;;;;11.30;2.03;;;;;;;10.07;88.97;101539.13;4955094;29;20055;-76
2022/09/07 08:16:06;;;;;;;2.40;1.93;;;;;;;10.36;87.42;101539.97;4955425;29;20193;-78
2022/09/07 08:18:33;;;;;;;1.80;1.30;;;;;;;10.79;78.60;101544.81;4955161;29;20043;-75
2022/09/07 08:21:24;;;;;;;1.67;1.50;;;;;;;11.23;78.80;101550.38;4954993;29;20116;-75
2022/09/07 08:23:49;;;;;;;3.23;1.93;;;;;;;11.36;73.88;101534.03;4954938;29;20055;-74
2022/09/07 08:26:15;;;;;;;4.43;1.50;;;;;;;11.30;71.48;101566.66;4956719;29;20035;-73
2022/09/07 08:28:44;;;;;;;1.90;1.37;;;;;;;11.03;72.69;101559.47;4954928;29;20054;-76
2022/09/07 08:31:12;;;;;;;3.17;1.70;;;;;;;10.79;75.83;101547.47;4939679;29;20062;-75
2022/09/07 08:33:38;;;;;;;1.70;1.60;;;;;;;10.84;77.19;101555.88;4954677;29;20035;-73
2022/09/07 08:36:18;;;;;;;1.93;1.30;;;;;;;10.90;77.71;101559.78;4954512;29;20039;-73
2022/09/07 08:38:44;;;;;;;3.07;1.50;;;;;;;10.67;79.23;101543.28;4954464;29;20035;-74
2022/09/07 08:41:33;;;;;;;1.93;1.60;;;;;;;10.61;79.17;101565.16;4955725;29;20137;-75
2022/09/07 08:44:05;;;;;;;2.90;1.77;;;;;;;10.41;80.57;101564.38;4955075;29;20045;-73
2022/09/07 08:46:44;;;;;;;2.83;1.83;;;;;;;10.57;79.89;101573.59;4956144;29;20126;-75
2022/09/07 08:49:20;;;;;;;2.30;1.70;;;;;;;10.73;78.42;101585.34;4959254;28;20039;-73
2022/09/07 08:51:52;;;;;;;3.00;1.47;;;;;;;10.93;76.24;101585.28;4959390;29;20035;-75
2022/09/07 08:54:18;;;;;;;1.70;1.47;;;;;;;11.03;77.44;101586.13;4968983;29;20039;-73
2022/09/07 08:56:53;;;;;;;1.23;1.13;;;;;;;10.87;77.54;101586.72;4969238;29;20130;-76
2022/09/07 08:59:24;;;;;;;1.73;1.50;;;;;;;10.47;77.78;101594.94;4958501;29;20047;-75
2022/09/07 09:01:49;;;;;;;4.73;1.37;;;;;;;10.08;79.56;101589.56;4942888;29;20043;-77
2022/09/07 09:04:25;;;;;;;2.67;1.40;;;;;;;9.90;81.39;101585.91;4927536;29;20061;-72
2022/09/07 09:07:02;;;;;;;1.37;1.27;;;;;;;9.93;81.31;101591.78;4960310;29;20498;-78
2022/09/07 09:09:59;;;;;;;3.23;1.73;;;;;;;9.98;81.57;101582.56;4960634;29;20039;-75
2022/09/07 09:12:34;;;;;;;2.93;1.60;;;;;;;10.13;81.73;101586.50;4959699;29;20063;-77
2022/09/07 09:15:21;;;;;;;1.70;1.40;;;;;;;10.30;80.29;101584.97;4958110;29;20167;-76
2022/09/07 09:17:56;;;;;;;1.53;1.20;;;;;;;10.57;79.71;101585.09;4961907;29;20565;-74
2022/09/07 09:20:45;;;;;;;2.13;1.20;;;;;;;10.96;78.23;101585.00;4957231;29;20035;-76
2022/09/07 09:23:18;;;;;;;2.53;1.20;;;;;;;11.37;76.69;101594.41;4950868;29;20156;-76
2022/09/07 09:25:50;;;;;;;1.20;1.10;;;;;;;11.34;75.71;101584.88;4941400;29;20191;-77
2022/09/07 09:28:16;;;;;;;1.40;1.30;;;;;;;11.13;75.49;101590.41;4940920;29;20041;-77
2022/09/07 09:30:41;;;;;;;1.57;1.47;;;;;;;10.78;76.82;101558.28;4960781;29;20039;-73
2022/09/07 09:33:17;;;;;;;5.17;1.23;;;;;;;10.84;77.34;101587.84;4944580;29;20039;-73
2022/09/07 09:35:45;;;;;;;1.87;1.30;;;;;;;10.75;75.89;101575.41;4957950;29;20134;-75
2022/09/07 09:38:43;;;;;;;1.20;1.10;;;;;;;10.94;75.49;101602.97;4956499;29;20043;-72
2022/09/07 09:41:12;;;;;;;1.10;1.00;;;;;;;10.77;75.72;101562.75;4914799;29;20042;-72
2022/09/07 09:43:55;;;;;;;2.40;1.13;;;;;;;11.03;76.66;101599.44;4940042;29;20046;-78
2022/09/07 09:46:34;;;;;;;1.00;0.90;;;;;;;10.91;76.90;101613.91;4956638;29;20122;-74
2022/09/07 09:49:12;;;;;;;1.37;1.27;;;;;;;10.53;79.43;101586.38;4960587;29;20098;-75
2022/09/07 09:51:43;;;;;;;1.33;1.20;;;;;;;10.50;78.76;101610.63;4926103;29;20058;-73
2022/09/07 09:54:23;;;;;;;1.60;1.20;;;;;;;10.64;78.95;101618.16;4958686;29;20035;-76
2022/09/07 09:56:49;;;;;;;1.87;1.20;;;;;;;10.94;77.24;101619.78;4957672;28;20038;-73
2022/09/07 09:59:14;;;;;;;2.10;1.13;;;;;;;11.17;77.81;101614.97;4958504;29;20491;-76
2022/09/07 10:01:40;;;;;;;1.77;1.40;;;;;;;11.00;80.00;101624.56;4958876;28;20537;-72
2022/09/07 10:04:29;;;;;;;2.13;1.40;;;;;;;10.71;82.14;101624.63;4945129;29;20718;-75
2022/09/07 10:07:18;;;;;;;1.47;1.10;;;;;;;10.51;82.51;101628.28;4958172;29;20130;-75
2022/09/07 10:09:49;;;;;;;1.20;1.10;;;;;;;10.28;81.84;101589.59;4958331;29;20098;-75
2022/09/07 10:12:30;;;;;;;1.70;1.33;;;;;;;10.39;81.99;101613.41;4940192;29;20414;-76
2022/09/07 10:14:57;;;;;;;1.40;1.30;;;;;;;10.47;80.03;101602.91;4958618;29;20074;-75
2022/09/07 10:17:41;;;;;;;1.60;1.50;;;;;;;10.80;79.44;101628.25;4958283;29;20083;-73
2022/09/07 10:20:15;;;;;;;1.80;1.27;;;;;;;11.00;77.46;101629.91;4943854;29;20119;-78
2022/09/07 10:22:46;;;;;;;1.93;1.70;;;;;;;11.24;77.72;101617.88;4957000;29;20039;-76
2022/09/07 10:25:35;;;;;;;1.70;1.60;;;;;;;11.71;76.87;101613.31;4956707;29;20144;-76
2022/09/07 10:28:12;;;;;;;2.60;1.60;;;;;;;11.87;75.38;101623.38;4956864;29;20031;-74
2022/09/07 10:31:06;;;;;;;1.70;1.50;;;;;;;12.01;74.57;101620.19;4955952;29;20039;-75
2022/09/07 10:33:59;;;;;;;2.47;1.20;;;;;;;11.85;74.27;101625.31;4939695;29;20035;-73
2022/09/07 10:36:39;;;;;;;1.37;1.27;;;;;;;11.64;74.93;101628.25;4958246;29;20098;-73
2022/09/07 10:39:13;;;;;;;1.67;1.57;;;;;;;11.45;76.16;101626.50;4956634;29;20070;-76
2022/09/07 10:41:59;;;;;;;3.93;1.70;;;;;;;11.41;77.15;101625.97;4956401;29;20034;-76
2022/09/07 10:45:23;;;;;;;1.53;1.43;;;;;;;11.55;76.57;101634.44;4956354;29;20047;-77
2022/09/07 10:48:06;;;;;;;2.97;1.67;;;;;;;11.93;75.45;101639.63;4878935;29;20044;-71
2022/09/07 10:51:01;;;;;;;2.03;1.20;;;;;;;12.06;75.61;101640.09;4879781;29;20037;-72
2022/09/07 10:53:32;;;;;;;2.63;1.20;;;;;;;11.95;74.31;101626.97;4949714;29;20041;-75
2022/09/07 10:56:22;;;;;;;1.43;1.13;;;;;;;11.59;76.16;101626.03;4956396;29;20046;-72
2022/09/07 10:59:04;;;;;;;1.30;1.20;;;;;;;11.32;77.48;101634.84;4956742;29;20035;-76
2022/09/07 11:01:53;;;;;;;1.23;1.13;;;;;;;11.11;78.33;101620.88;4958219;29;20122;-73
2022/09/07 11:04:33;;;;;;;3.17;1.40;;;;;;;11.08;79.07;101639.84;4957701;29;20039;-77
2022/09/07 11:07:36;;;;;;;1.60;1.50;;;;;;;11.13;78.97;101648.22;4964320;29;20501;-75
2022/09/07 11:10:02;;;;;;;7.90;1.60;;;;;;;11.26;80.41;101655.91;4964879;29;20031;-76
2022/09/07 11:12:34;;;;;;;1.37;1.27;;;;;;;11.10;79.43;101643.19;4957872;28;20062;-75
2022/09/07 11:15:11;;;;;;;2.30;1.50;;;;;;;10.99;81.89;101670.03;4963167;29;20216;-74
2022/09/07 11:17:46;;;;;;;1.50;1.40;;;;;;;10.58;82.31;101649.84;4958578;29;20151;-73
2022/09/07 11:20:53;;;;;;;1.97;1.50;;;;;;;10.53;84.04;101671.59;4960672;29;20212;-72
2022/09/07 11:23:40;;;;;;;1.33;1.10;;;;;;;10.23;84.57;101677.88;4932215;29;20047;-74
2022/09/07 11:26:22;;;;;;;1.87;1.40;;;;;;;10.00;85.79;101663.94;4957677;29;20043;-74
2022/09/07 11:29:00;;;;;;;1.30;1.20;;;;;;;10.06;86.06;101666.03;4955866;29;20085;-78
2022/09/07 11:31:42;;;;;;;1.75;1.38;;;;;;;10.18;85.70;101659.63;4955446;29;20035;-74
2022/09/07 11:34:23;;;;;;;1.70;1.60;;;;;;;10.18;84.00;101627.69;4955619;29;20097;-72
2022/09/07 11:37:05;;;;;;;1.93;1.20;;;;;;;10.64;82.85;101660.78;4923839;29;20054;-75
2022/09/07 11:39:45;;;;;;;1.90;1.30;;;;;;;11.11;79.84;101656.38;4938515;29;20031;-75
2022/09/07 11:42:23;;;;;;;1.63;1.40;;;;;;;11.34;79.29;101672.88;4955181;29;20054;-76
2022/09/07 11:44:56;;;;;;;2.63;1.20;;;;;;;11.06;81.06;101663.13;4937943;29;20410;-75
2022/09/07 11:47:37;;;;;;;1.73;1.40;;;;;;;10.73;81.98;101691.09;4954580;29;20098;-74
2022/09/07 11:50:03;;;;;;;1.90;1.57;;;;;;;10.26;85.37;101687.41;4954041;29;20097;-74
2022/09/07 11:52:39;;;;;;;2.10;1.20;;;;;;;9.99;85.75;101696.00;4955742;29;20135;-75
2022/09/07 11:55:09;;;;;;;1.30;1.20;;;;;;;9.76;88.63;101690.03;4955090;29;20042;-74
2022/09/07 11:57:37;;;;;;;3.27;1.20;;;;;;;9.75;88.89;101699.00;4955691;29;20043;-75
2022/09/07 12:00:11;;;;;;;1.75;1.23;;;;;;;9.68;88.64;101692.53;4937897;29;20035;-74
2022/09/07 12:03:13;;;;;;;6.03;2.13;;;;;;;9.76;91.33;101690.03;4956464;29;20115;-76
2022/09/07 12:05:58;;;;;;;6.27;2.37;;;;;;;10.00;89.24;101695.84;4958934;29;20055;-75
2022/09/07 12:08:40;;;;;;;2.73;2.13;;;;;;;10.21;89.16;101693.16;4939749;29;20035;-75
2022/09/07 12:11:35;;;;;;;9.03;2.60;;;;;;;10.52;88.21;101692.06;4939117;29;20059;-75
2022/09/07 12:14:30;;;;;;;5.73;2.10;;;;;;;10.75;87.22;101689.97;4954480;29;20054;-75
2022/09/07 12:16:56;;;;;;;12.20;2.40;;;;;;;10.75;87.91;101695.28;4948329;29;20043;-72
2022/09/07 12:19:24;;;;;;;4.83;3.27;;;;;;;10.70;88.19;101694.03;4947494;29;20046;-73
2022/09/07 12:21:52;;;;;;;6.22;2.17;;;;;;;10.69;88.25;101695.00;4966229;29;20119;-73
2022/09/07 12:24:36;;;;;;;2.00;1.60;;;;;;;10.55;87.52;101682.94;4939491;29;20035;-75
2022/09/07 12:27:09;;;;;;;2.73;1.57;;;;;;;10.52;86.38;101685.88;4955036;29;20134;-75
2022/09/07 12:29:35;;;;;;;6.60;2.93;;;;;;;10.62;86.55;101692.06;4939797;29;20042;-75
2022/09/07 12:32:02;;;;;;;4.70;1.60;;;;;;;10.90;84.32;101700.19;4924662;29;20035;-74
2022/09/07 12:34:31;;;;;;;2.00;1.80;;;;;;;11.09;82.52;101708.16;4937499;29;20035;-74
2022/09/07 12:36:56;;;;;;;1.52;1.23;;;;;;;10.99;83.09;101705.50;4955253;29;20134;-75
2022/09/07 12:39:27;;;;;;;5.93;2.03;;;;;;;10.77;84.11;101674.69;4955000;29;20070;-74
2022/09/07 12:42:05;;;;;;;1.90;1.40;;;;;;;10.74;83.36;101709.59;4954429;29;20031;-74
2022/09/07 12:44:35;;;;;;;1.80;1.20;;;;;;;10.45;82.81;101700.75;4954534;29;20086;-75
2022/09/07 12:47:11;;;;;;;2.17;1.80;;;;;;;10.28;83.76;101701.41;4937232;29;20062;-72
2022/09/07 12:50:18;;;;;;;2.47;1.50;;;;;;;10.38;83.26;101710.25;4937649;29;20035;-74
2022/09/07 12:52:46;;;;;;;1.87;1.43;;;;;;;10.61;81.32;101687.72;4941601;29;20043;-75
2022/09/07 12:55:24;;;;;;;2.17;1.25;;;;;;;11.03;81.26;101700.75;4954136;29;20371;-71
2022/09/07 12:58:01;;;;;;;1.58;1.48;;;;;;;11.21;81.27;101712.34;4954070;29;20129;-74
2022/09/07 13:01:08;;;;;;;3.00;1.60;;;;;;;11.13;81.21;101721.06;4954311;29;20062;-73
2022/09/07 13:03:57;;;;;;;1.73;1.60;;;;;;;11.01;81.58;101711.53;4954467;29;20039;-74
2022/09/07 13:06:35;;;;;;;2.40;1.47;;;;;;;10.91;82.05;101720.50;4954280;29;20087;-75
2022/09/07 13:09:09;;;;;;;1.30;1.20;;;;;;;10.69;81.55;101722.47;4953646;29;20042;-76
2022/09/07 13:11:39;;;;;;;1.53;1.20;;;;;;;10.29;78.28;101700.44;4954214;29;20430;-76
2022/09/07 13:14:16;;;;;;;1.97;1.20;;;;;;;10.29;79.04;101725.25;4953668;29;20058;-75
2022/09/07 13:16:43;;;;;;;1.30;1.20;;;;;;;10.22;79.11;101726.78;4955096;29;20035;-77
2022/09/07 13:19:15;;;;;;;2.10;1.50;;;;;;;10.22;80.14;101703.66;4958458;29;20039;-74
2022/09/07 13:21:47;;;;;;;1.17;1.00;;;;;;;10.73;80.86;101726.56;4977466;28;20071;-81
2022/09/07 13:24:16;;;;;;;1.60;1.50;;;;;;;11.17;78.99;101726.94;4960249;28;20383;-76
2022/09/07 13:27:07;;;;;;;2.30;1.37;;;;;;;11.42;77.36;101726.31;4954685;29;20410;-78
2022/09/07 13:29:49;;;;;;;2.53;1.30;;;;;;;11.37;78.14;101738.41;4955501;29;20114;-80
2022/09/07 13:32:58;;;;;;;1.53;1.10;;;;;;;11.09;74.57;101734.81;4954637;29;20039;-78
2022/09/07 13:35:24;;;;;;;2.60;1.10;;;;;;;10.77;73.94;101757.28;4954449;28;20054;-78
2022/09/07 13:38:01;;;;;;;2.30;1.40;;;;;;;10.23;74.04;101689.38;4957130;29;20047;-75
2022/09/07 13:40:30;;;;;;;1.40;1.30;;;;;;;10.33;74.52;101731.97;4958998;29;20046;-78
2022/09/07 13:42:58;;;;;;;2.73;1.37;;;;;;;10.23;74.17;101729.31;4957181;29;20035;-77
2022/09/07 13:45:45;;;;;;;1.80;1.20;;;;;;;10.20;75.11;101721.59;4957741;29;20043;-79
2022/09/07 13:48:25;;;;;;;1.63;1.00;;;;;;;10.56;74.16;101740.56;4957782;29;20035;-78
2022/09/07 13:50:53;;;;;;;1.67;1.30;;;;;;;10.69;73.65;101746.44;4957959;29;20474;-78
2022/09/07 13:53:37;;;;;;;1.45;1.27;;;;;;;10.67;74.32;101761.72;4957435;29;20499;-75
2022/09/07 13:56:23;;;;;;;1.67;1.50;;;;;;;10.47;71.71;101750.22;4940253;29;20039;-77
2022/09/07 13:58:52;;;;;;;1.73;1.47;;;;;;;10.32;72.75;101730.28;4956373;28;20198;-73
2022/09/07 14:01:21;;;;;;;5.60;2.00;;;;;;;10.36;71.51;101744.16;4958976;28;20534;-73
2022/09/07 14:03:52;;;;;;;2.00;1.63;;;;;;;10.60;71.90;101752.63;4975954;28;20481;-81
2022/09/07 14:06:20;;;;;;;1.27;1.10;;;;;;;10.71;71.92;101757.00;4975799;28;20109;-76
2022/09/07 14:08:51;;;;;;;2.20;1.85;;;;;;;10.71;70.74;101743.69;4975884;28;20467;-75
2022/09/07 14:11:22;;;;;;;2.93;2.00;;;;;;;10.79;70.95;101763.31;4952167;29;20609;-75
2022/09/07 14:14:15;;;;;;;2.47;1.27;;;;;;;10.89;69.09;101763.28;4971051;28;20041;-75
2022/09/07 14:16:44;;;;;;;2.53;1.23;;;;;;;10.85;69.13;101760.06;4975527;28;20518;-76
2022/09/07 14:19:15;;;;;;;1.30;1.20;;;;;;;10.78;68.43;101739.47;4942560;28;20031;-75
2022/09/07 14:21:41;;;;;;;2.63;1.40;;;;;;;10.78;69.16;101731.47;4976074;28;20128;-76
2022/09/07 14:24:38;;;;;;;1.50;1.40;;;;;;;10.62;67.38;101713.38;4956929;28;20075;-77
2022/09/07 14:27:04;;;;;;;1.33;1.23;;;;;;;10.50;67.66;101666.53;4954333;29;20050;-78
2022/09/07 14:29:32;;;;;;;1.40;1.23;;;;;;;11.13;67.51;101769.03;4956619;29;20047;-81
2022/09/07 14:32:01;;;;;;;1.35;0.95;;;;;;;11.08;66.43;101749.13;4956177;29;20110;-74
2022/09/07 14:34:32;;;;;;;1.20;1.10;;;;;;;11.17;64.84;101777.59;4956428;29;20054;-74
2022/09/07 14:37:11;;;;;;;2.80;1.10;;;;;;;11.08;65.75;101759.78;4956006;29;20043;-77
2022/09/07 14:39:42;;;;;;;4.47;1.57;;;;;;;11.11;64.53;101780.84;4957138;29;20035;-76
2022/09/07 14:42:20;;;;;;;3.73;1.33;;;;;;;10.91;66.06;101757.81;4973991;28;20035;-74
2022/09/07 14:44:46;;;;;;;1.67;1.35;;;;;;;10.72;66.11;101734.69;4975335;28;20038;-74
2022/09/07 14:47:32;;;;;;;4.57;1.50;;;;;;;10.94;66.49;101784.19;4974817;28;20127;-72
2022/09/07 14:50:04;;;;;;;2.37;1.30;;;;;;;10.86;66.19;101788.41;4974272;28;20043;-73
2022/09/07 14:52:35;;;;;;;2.23;1.33;;;;;;;10.82;65.85;101791.50;4974143;28;20042;-75
2022/09/07 14:55:22;;;;;;;1.27;1.17;;;;;;;10.75;66.40;101775.22;4974442;28;20065;-75
2022/09/07 14:57:47;;;;;;;3.90;1.10;;;;;;;10.70;66.99;101781.97;4974619;28;20054;-72
2022/09/07 15:00:29;;;;;;;1.47;1.30;;;;;;;10.65;67.10;101785.00;4974279;28;20042;-72
2022/09/07 15:02:54;;;;;;;1.70;1.40;;;;;;;10.46;67.44;101769.84;4974875;28;20569;-76
2022/09/07 15:05:25;;;;;;;2.80;1.43;;;;;;;10.51;68.49;101799.56;4957440;28;20122;-75
2022/09/07 15:07:59;;;;;;;1.50;1.10;;;;;;;10.37;68.84;101797.28;4974540;28;20046;-72
2022/09/07 15:10:28;;;;;;;2.37;1.27;;;;;;;10.28;69.88;101792.78;4974864;28;20063;-72
2022/09/07 15:12:57;;;;;;;4.30;1.40;;;;;;;10.27;70.35;101800.91;4993651;28;20058;-71
2022/09/07 15:15:30;;;;;;;;;;;;;;;10.30;70.27;101814.78;4994285;28;20169;-76
2022/09/07 15:17:59;;;;;;;2.30;1.20;;;;;;;10.22;71.63;101814.63;4993947;28;19918;-71
2022/09/07 15:20:43;;;;;;;4.23;1.40;;;;;;;10.05;72.46;101812.56;4994582;28;20034;-70
2022/09/07 15:23:16;;;;;;;2.13;1.40;;;;;;;10.01;72.85;101806.66;4995096;28;20030;-73
2022/09/07 15:25:44;;;;;;;1.60;1.40;;;;;;;10.04;74.03;101825.03;4994224;28;20034;-75
2022/09/07 15:28:23;;;;;;;4.25;1.65;;;;;;;9.96;74.29;101829.31;4976901;28;20045;-73
2022/09/07 15:34:36;;;;;;;2.67;1.70;;;;;;;9.75;72.52;101822.22;4994299;28;20093;-78
2022/09/07 15:37:02;;;;;;;2.07;1.47;;;;;;;9.77;73.29;101835.38;4999652;28;20046;-75
2022/09/07 15:39:28;;;;;;;1.60;1.33;;;;;;;9.67;72.68;101810.53;5001583;28;20489;-78
2022/09/07 15:41:54;;;;;;;1.70;1.30;;;;;;;9.77;72.56;101838.03;4994348;28;20573;-73
2022/09/07 15:44:20;;;;;;;2.70;1.20;;;;;;;9.72;73.20;101826.94;4993354;28;20049;-73
2022/09/07 15:46:49;;;;;;;1.97;1.43;;;;;;;9.73;74.03;101839.28;4993717;28;20045;-72
2022/09/07 15:49:15;;;;;;;2.60;1.85;;;;;;;9.53;73.87;101812.53;4994088;28;20409;-73
2022/09/07 15:51:44;;;;;;;1.67;1.57;;;;;;;9.63;74.74;101826.78;4976429;28;20105;-72
2022/09/07 15:54:15;;;;;;;2.20;2.00;;;;;;;9.63;74.42;101840.06;4987136;28;20043;-75
2022/09/07 15:56:42;;;;;;;2.33;1.90;;;;;;;9.56;75.04;101833.59;4975858;28;20087;-76
2022/09/07 15:59:09;;;;;;;7.17;2.03;;;;;;;9.46;75.36;101826.50;4974584;28;20129;-79
2022/09/07 16:01:35;;;;;;;2.60;1.73;;;;;;;9.48;75.80;101846.66;4974467;28;20043;-74
2022/09/07 16:04:01;;;;;;;3.17;1.73;;;;;;;9.37;76.03;101844.06;4974143;28;20038;-73
2022/09/07 16:06:27;;;;;;;1.57;1.47;;;;;;;9.41;75.00;101850.81;4956771;28;20129;-75
2022/09/07 16:08:53;;;;;;;3.63;1.77;;;;;;;9.33;76.01;101847.97;4974341;28;20174;-82
2022/09/07 16:11:25;;;;;;;2.00;1.70;;;;;;;8.98;76.44;101805.72;4974169;28;20054;-77